Dati Storici

Data ora Umidita' aria (%) Temperatura aria (°C) Rad globale (W/m²) Gonioanemometro (°) Tacoanemometro (m/s) Pioggia (mm)
13-10-2012 21:20 80.1 % 13.637 4.472 21.513 2.059 0
13-10-2012 21:10 80.8 % 13.558 4.485 16.057 2.7 0
13-10-2012 21:00 80.7 % 13.451 3.998 22.737 3.297 0
13-10-2012 20:50 80.1 % 13.474 3.126 39.043 1.44 0
13-10-2012 20:40 79.3 % 13.616 3.357 39.742 1.187 0
13-10-2012 20:30 78.7 % 13.756 3.318 53.298 2.172 0
13-10-2012 20:20 78.1 % 13.904 3.639 40.51 1.734 0
13-10-2012 20:10 77.7 % 14.007 3.798 343.982 1.261 0
13-10-2012 20:00 77.5 % 14.081 3.939 23.716 1.184 0
13-10-2012 19:50 77.1 % 14.142 4.106 70.933 1.895 0
13-10-2012 19:40 76.7 % 14.239 4.17 30.771 2.794 0
13-10-2012 19:30 76.9 % 14.279 4.362 42.461 3.59 0
13-10-2012 19:20 76.9 % 14.295 4.183 2.607 2.076 0
13-10-2012 19:10 76.7 % 14.315 4.195 45.583 3.118 0
13-10-2012 19:00 76.8 % 14.419 4.208 64.548 1.247 0
13-10-2012 18:50 76.4 % 14.446 4.265 21.734 3.791 0
13-10-2012 18:40 76.9 % 14.511 4.675 35.024 4.817 0
13-10-2012 18:30 77.2 % 14.521 5.648 36.321 2.36 0
13-10-2012 18:20 77.4 % 14.551 6.544 32.828 2.243 0
13-10-2012 18:10 77.1 % 14.57 11.634 18.66 4.687 0

I dati sono presentati in modo automatico a scopo informativo. In seguito a verifica i dati possono subire modifiche o essere invalidati e non riportati negli archivi definitivi.